sensor_id;sensor_type;location;lat;lon;timestamp;P1;durP1;ratioP1;P2;durP2;ratioP2
16975;SDS011;8604;48.148;-1.786;2023-12-14T00:02:02;9.23;;;1.60;;
16975;SDS011;8604;48.148;-1.786;2023-12-14T00:04:30;2.73;;;1.20;;
16975;SDS011;8604;48.148;-1.786;2023-12-14T00:06:58;5.67;;;1.93;;
16975;SDS011;8604;48.148;-1.786;2023-12-14T00:09:27;6.57;;;1.60;;
16975;SDS011;8604;48.148;-1.786;2023-12-14T00:11:55;6.60;;;1.80;;
16975;SDS011;8604;48.148;-1.786;2023-12-14T00:14:23;5.50;;;1.80;;
16975;SDS011;8604;48.148;-1.786;2023-12-14T00:16:53;6.90;;;1.97;;
16975;SDS011;8604;48.148;-1.786;2023-12-14T00:19:23;4.70;;;1.83;;
16975;SDS011;8604;48.148;-1.786;2023-12-14T00:21:51;3.97;;;1.63;;
16975;SDS011;8604;48.148;-1.786;2023-12-14T00:24:20;7.13;;;1.90;;
16975;SDS011;8604;48.148;-1.786;2023-12-14T00:26:48;3.63;;;1.70;;
16975;SDS011;8604;48.148;-1.786;2023-12-14T00:29:16;8.00;;;2.17;;
16975;SDS011;8604;48.148;-1.786;2023-12-14T00:31:45;7.10;;;2.47;;
16975;SDS011;8604;48.148;-1.786;2023-12-14T00:34:15;6.80;;;2.30;;
16975;SDS011;8604;48.148;-1.786;2023-12-14T00:36:43;7.53;;;2.63;;
16975;SDS011;8604;48.148;-1.786;2023-12-14T00:39:11;6.47;;;2.30;;
16975;SDS011;8604;48.148;-1.786;2023-12-14T00:41:40;5.30;;;2.13;;
16975;SDS011;8604;48.148;-1.786;2023-12-14T00:44:09;5.33;;;1.97;;
16975;SDS011;8604;48.148;-1.786;2023-12-14T00:46:37;5.67;;;1.80;;
16975;SDS011;8604;48.148;-1.786;2023-12-14T00:49:04;9.43;;;2.00;;
16975;SDS011;8604;48.148;-1.786;2023-12-14T00:51:35;5.93;;;1.80;;
16975;SDS011;8604;48.148;-1.786;2023-12-14T00:54:04;6.53;;;1.90;;
16975;SDS011;8604;48.148;-1.786;2023-12-14T00:56:33;5.17;;;1.77;;
16975;SDS011;8604;48.148;-1.786;2023-12-14T00:59:01;5.83;;;1.80;;
16975;SDS011;8604;48.148;-1.786;2023-12-14T01:01:29;7.17;;;1.93;;
16975;SDS011;8604;48.148;-1.786;2023-12-14T01:03:58;6.77;;;1.80;;
16975;SDS011;8604;48.148;-1.786;2023-12-14T01:06:27;9.23;;;2.27;;
16975;SDS011;8604;48.148;-1.786;2023-12-14T01:08:56;7.67;;;1.80;;
16975;SDS011;8604;48.148;-1.786;2023-12-14T01:11:25;7.40;;;1.93;;
16975;SDS011;8604;48.148;-1.786;2023-12-14T01:13:53;8.63;;;2.23;;
16975;SDS011;8604;48.148;-1.786;2023-12-14T01:16:21;7.93;;;2.10;;
16975;SDS011;8604;48.148;-1.786;2023-12-14T01:18:54;7.27;;;1.83;;
16975;SDS011;8604;48.148;-1.786;2023-12-14T01:21:22;7.23;;;1.67;;
16975;SDS011;8604;48.148;-1.786;2023-12-14T01:23:50;7.93;;;1.93;;
16975;SDS011;8604;48.148;-1.786;2023-12-14T01:26:20;6.77;;;2.40;;
16975;SDS011;8604;48.148;-1.786;2023-12-14T01:28:49;6.60;;;1.90;;
16975;SDS011;8604;48.148;-1.786;2023-12-14T01:31:17;5.63;;;1.60;;
16975;SDS011;8604;48.148;-1.786;2023-12-14T01:33:47;8.70;;;2.00;;
16975;SDS011;8604;48.148;-1.786;2023-12-14T01:36:19;7.83;;;2.20;;
16975;SDS011;8604;48.148;-1.786;2023-12-14T01:38:49;6.27;;;1.77;;
16975;SDS011;8604;48.148;-1.786;2023-12-14T01:41:18;7.27;;;2.00;;
16975;SDS011;8604;48.148;-1.786;2023-12-14T01:43:47;7.50;;;1.93;;
16975;SDS011;8604;48.148;-1.786;2023-12-14T01:46:16;7.67;;;1.70;;
16975;SDS011;8604;48.148;-1.786;2023-12-14T01:48:44;5.10;;;1.83;;
16975;SDS011;8604;48.148;-1.786;2023-12-14T01:51:13;5.13;;;1.70;;
16975;SDS011;8604;48.148;-1.786;2023-12-14T01:53:41;5.47;;;1.63;;
16975;SDS011;8604;48.148;-1.786;2023-12-14T01:56:09;4.83;;;1.60;;
16975;SDS011;8604;48.148;-1.786;2023-12-14T01:58:38;8.40;;;2.00;;
16975;SDS011;8604;48.148;-1.786;2023-12-14T02:01:10;6.40;;;2.00;;
16975;SDS011;8604;48.148;-1.786;2023-12-14T02:03:44;5.03;;;1.80;;
16975;SDS011;8604;48.148;-1.786;2023-12-14T02:06:13;5.57;;;1.90;;
16975;SDS011;8604;48.148;-1.786;2023-12-14T02:08:41;6.37;;;1.90;;
16975;SDS011;8604;48.148;-1.786;2023-12-14T02:11:10;7.67;;;1.87;;
16975;SDS011;8604;48.148;-1.786;2023-12-14T02:13:39;6.20;;;1.93;;
16975;SDS011;8604;48.148;-1.786;2023-12-14T02:16:09;7.20;;;2.30;;
16975;SDS011;8604;48.148;-1.786;2023-12-14T02:18:37;6.83;;;2.00;;
16975;SDS011;8604;48.148;-1.786;2023-12-14T02:21:06;6.63;;;1.70;;
16975;SDS011;8604;48.148;-1.786;2023-12-14T02:23:36;6.00;;;1.90;;
16975;SDS011;8604;48.148;-1.786;2023-12-14T02:26:11;5.37;;;1.70;;
16975;SDS011;8604;48.148;-1.786;2023-12-14T02:28:39;5.17;;;1.80;;
16975;SDS011;8604;48.148;-1.786;2023-12-14T02:31:08;7.90;;;2.03;;
16975;SDS011;8604;48.148;-1.786;2023-12-14T02:33:37;6.93;;;2.10;;
16975;SDS011;8604;48.148;-1.786;2023-12-14T02:36:05;7.73;;;2.13;;
16975;SDS011;8604;48.148;-1.786;2023-12-14T02:38:36;7.97;;;2.17;;
16975;SDS011;8604;48.148;-1.786;2023-12-14T02:41:04;7.93;;;1.83;;
16975;SDS011;8604;48.148;-1.786;2023-12-14T02:43:36;7.43;;;1.90;;
16975;SDS011;8604;48.148;-1.786;2023-12-14T02:46:05;7.10;;;1.80;;
16975;SDS011;8604;48.148;-1.786;2023-12-14T02:48:33;5.93;;;1.73;;
16975;SDS011;8604;48.148;-1.786;2023-12-14T02:51:02;6.70;;;2.00;;
16975;SDS011;8604;48.148;-1.786;2023-12-14T02:53:31;6.50;;;2.00;;
16975;SDS011;8604;48.148;-1.786;2023-12-14T02:56:02;7.47;;;2.10;;
16975;SDS011;8604;48.148;-1.786;2023-12-14T02:58:31;6.80;;;2.00;;
16975;SDS011;8604;48.148;-1.786;2023-12-14T03:00:59;5.53;;;2.07;;
16975;SDS011;8604;48.148;-1.786;2023-12-14T03:03:27;11.27;;;2.10;;
16975;SDS011;8604;48.148;-1.786;2023-12-14T03:05:56;5.53;;;2.17;;
16975;SDS011;8604;48.148;-1.786;2023-12-14T03:08:24;9.17;;;2.30;;
16975;SDS011;8604;48.148;-1.786;2023-12-14T03:10:52;8.20;;;2.50;;
16975;SDS011;8604;48.148;-1.786;2023-12-14T03:13:22;7.33;;;2.10;;
16975;SDS011;8604;48.148;-1.786;2023-12-14T03:15:51;5.40;;;2.10;;
16975;SDS011;8604;48.148;-1.786;2023-12-14T03:18:19;7.47;;;2.33;;
16975;SDS011;8604;48.148;-1.786;2023-12-14T03:20:47;9.43;;;2.67;;
16975;SDS011;8604;48.148;-1.786;2023-12-14T03:23:17;9.33;;;2.50;;
16975;SDS011;8604;48.148;-1.786;2023-12-14T03:25:45;8.33;;;2.43;;
16975;SDS011;8604;48.148;-1.786;2023-12-14T03:28:14;5.03;;;2.10;;
16975;SDS011;8604;48.148;-1.786;2023-12-14T03:30:44;6.13;;;2.00;;
16975;SDS011;8604;48.148;-1.786;2023-12-14T03:33:13;8.80;;;2.57;;
16975;SDS011;8604;48.148;-1.786;2023-12-14T03:35:42;9.43;;;2.30;;
16975;SDS011;8604;48.148;-1.786;2023-12-14T03:38:13;7.10;;;2.40;;
16975;SDS011;8604;48.148;-1.786;2023-12-14T03:40:41;5.47;;;2.10;;
16975;SDS011;8604;48.148;-1.786;2023-12-14T03:43:10;5.60;;;2.10;;
16975;SDS011;8604;48.148;-1.786;2023-12-14T03:45:38;7.77;;;2.23;;
16975;SDS011;8604;48.148;-1.786;2023-12-14T03:48:08;8.63;;;2.30;;
16975;SDS011;8604;48.148;-1.786;2023-12-14T03:50:36;7.43;;;2.00;;
16975;SDS011;8604;48.148;-1.786;2023-12-14T03:53:05;6.73;;;2.20;;
16975;SDS011;8604;48.148;-1.786;2023-12-14T03:55:33;6.43;;;2.27;;
16975;SDS011;8604;48.148;-1.786;2023-12-14T03:58:02;7.13;;;2.50;;
16975;SDS011;8604;48.148;-1.786;2023-12-14T04:00:30;6.20;;;2.20;;
16975;SDS011;8604;48.148;-1.786;2023-12-14T04:02:58;6.67;;;2.50;;
16975;SDS011;8604;48.148;-1.786;2023-12-14T04:05:28;5.37;;;2.03;;
16975;SDS011;8604;48.148;-1.786;2023-12-14T04:07:57;8.67;;;2.20;;
16975;SDS011;8604;48.148;-1.786;2023-12-14T04:10:25;5.37;;;2.00;;
16975;SDS011;8604;48.148;-1.786;2023-12-14T04:12:54;4.67;;;2.07;;
16975;SDS011;8604;48.148;-1.786;2023-12-14T04:15:22;7.83;;;2.20;;
16975;SDS011;8604;48.148;-1.786;2023-12-14T04:17:50;6.20;;;2.00;;
16975;SDS011;8604;48.148;-1.786;2023-12-14T04:20:19;7.60;;;1.97;;
16975;SDS011;8604;48.148;-1.786;2023-12-14T04:22:49;6.83;;;2.00;;
16975;SDS011;8604;48.148;-1.786;2023-12-14T04:25:17;3.80;;;1.57;;
16975;SDS011;8604;48.148;-1.786;2023-12-14T04:27:45;5.13;;;2.00;;
16975;SDS011;8604;48.148;-1.786;2023-12-14T04:30:14;4.77;;;1.93;;
16975;SDS011;8604;48.148;-1.786;2023-12-14T04:32:42;5.23;;;2.00;;
16975;SDS011;8604;48.148;-1.786;2023-12-14T04:35:11;5.63;;;2.07;;
16975;SDS011;8604;48.148;-1.786;2023-12-14T04:37:40;6.93;;;2.23;;
16975;SDS011;8604;48.148;-1.786;2023-12-14T04:40:10;7.63;;;2.13;;
16975;SDS011;8604;48.148;-1.786;2023-12-14T04:42:39;6.93;;;2.10;;
16975;SDS011;8604;48.148;-1.786;2023-12-14T04:45:08;6.50;;;2.03;;
16975;SDS011;8604;48.148;-1.786;2023-12-14T04:47:36;5.00;;;1.87;;
16975;SDS011;8604;48.148;-1.786;2023-12-14T04:50:05;4.23;;;2.07;;
16975;SDS011;8604;48.148;-1.786;2023-12-14T04:52:34;6.10;;;2.13;;
16975;SDS011;8604;48.148;-1.786;2023-12-14T04:55:03;5.57;;;1.97;;
16975;SDS011;8604;48.148;-1.786;2023-12-14T04:57:33;3.57;;;1.90;;
16975;SDS011;8604;48.148;-1.786;2023-12-14T05:00:02;4.30;;;1.80;;
16975;SDS011;8604;48.148;-1.786;2023-12-14T05:02:32;5.50;;;2.10;;
16975;SDS011;8604;48.148;-1.786;2023-12-14T05:05:01;6.00;;;2.13;;
16975;SDS011;8604;48.148;-1.786;2023-12-14T05:07:29;5.57;;;2.13;;
16975;SDS011;8604;48.148;-1.786;2023-12-14T05:09:58;5.17;;;2.23;;
16975;SDS011;8604;48.148;-1.786;2023-12-14T05:12:26;6.30;;;2.07;;
16975;SDS011;8604;48.148;-1.786;2023-12-14T05:14:57;7.87;;;2.20;;
16975;SDS011;8604;48.148;-1.786;2023-12-14T05:17:25;6.23;;;2.20;;
16975;SDS011;8604;48.148;-1.786;2023-12-14T05:19:54;5.53;;;2.20;;
16975;SDS011;8604;48.148;-1.786;2023-12-14T05:22:22;8.97;;;2.63;;
16975;SDS011;8604;48.148;-1.786;2023-12-14T05:24:51;5.00;;;2.27;;
16975;SDS011;8604;48.148;-1.786;2023-12-14T05:27:19;8.20;;;2.53;;
16975;SDS011;8604;48.148;-1.786;2023-12-14T05:29:47;3.90;;;2.00;;
16975;SDS011;8604;48.148;-1.786;2023-12-14T05:32:17;7.57;;;2.40;;
16975;SDS011;8604;48.148;-1.786;2023-12-14T05:34:45;5.70;;;2.20;;
16975;SDS011;8604;48.148;-1.786;2023-12-14T05:37:14;5.43;;;2.27;;
16975;SDS011;8604;48.148;-1.786;2023-12-14T05:39:42;7.23;;;2.40;;
16975;SDS011;8604;48.148;-1.786;2023-12-14T05:42:12;5.87;;;2.50;;
16975;SDS011;8604;48.148;-1.786;2023-12-14T05:44:43;5.30;;;2.30;;
16975;SDS011;8604;48.148;-1.786;2023-12-14T05:47:12;6.07;;;2.50;;
16975;SDS011;8604;48.148;-1.786;2023-12-14T05:49:42;4.97;;;2.10;;
16975;SDS011;8604;48.148;-1.786;2023-12-14T05:52:11;5.73;;;2.30;;
16975;SDS011;8604;48.148;-1.786;2023-12-14T05:54:39;4.57;;;2.20;;
16975;SDS011;8604;48.148;-1.786;2023-12-14T05:57:08;5.83;;;2.20;;
16975;SDS011;8604;48.148;-1.786;2023-12-14T05:59:39;7.40;;;2.50;;
16975;SDS011;8604;48.148;-1.786;2023-12-14T06:02:08;5.40;;;2.50;;
16975;SDS011;8604;48.148;-1.786;2023-12-14T06:04:36;6.90;;;2.60;;
16975;SDS011;8604;48.148;-1.786;2023-12-14T06:07:08;8.73;;;2.87;;
16975;SDS011;8604;48.148;-1.786;2023-12-14T06:09:37;8.30;;;2.97;;
16975;SDS011;8604;48.148;-1.786;2023-12-14T06:12:07;7.43;;;2.30;;
16975;SDS011;8604;48.148;-1.786;2023-12-14T06:14:36;6.07;;;2.40;;
16975;SDS011;8604;48.148;-1.786;2023-12-14T06:17:04;6.93;;;3.03;;
16975;SDS011;8604;48.148;-1.786;2023-12-14T06:19:32;7.57;;;2.70;;
16975;SDS011;8604;48.148;-1.786;2023-12-14T06:22:01;6.33;;;2.70;;
16975;SDS011;8604;48.148;-1.786;2023-12-14T06:24:30;8.87;;;3.10;;
16975;SDS011;8604;48.148;-1.786;2023-12-14T06:26:59;5.53;;;2.77;;
16975;SDS011;8604;48.148;-1.786;2023-12-14T06:29:27;8.13;;;2.60;;
16975;SDS011;8604;48.148;-1.786;2023-12-14T06:31:56;7.13;;;2.80;;
16975;SDS011;8604;48.148;-1.786;2023-12-14T06:34:24;9.27;;;3.17;;
16975;SDS011;8604;48.148;-1.786;2023-12-14T06:36:53;9.23;;;3.43;;
16975;SDS011;8604;48.148;-1.786;2023-12-14T06:39:21;8.13;;;3.17;;
16975;SDS011;8604;48.148;-1.786;2023-12-14T06:41:53;6.63;;;2.93;;
16975;SDS011;8604;48.148;-1.786;2023-12-14T06:44:23;6.40;;;2.60;;
16975;SDS011;8604;48.148;-1.786;2023-12-14T06:46:53;7.40;;;3.10;;
16975;SDS011;8604;48.148;-1.786;2023-12-14T06:49:38;8.60;;;2.93;;
16975;SDS011;8604;48.148;-1.786;2023-12-14T06:52:26;8.37;;;3.70;;
16975;SDS011;8604;48.148;-1.786;2023-12-14T06:54:54;7.17;;;3.20;;
16975;SDS011;8604;48.148;-1.786;2023-12-14T06:57:25;7.67;;;3.00;;
16975;SDS011;8604;48.148;-1.786;2023-12-14T06:59:58;9.47;;;3.63;;
16975;SDS011;8604;48.148;-1.786;2023-12-14T07:02:34;9.77;;;3.53;;
16975;SDS011;8604;48.148;-1.786;2023-12-14T07:05:13;7.70;;;3.67;;
16975;SDS011;8604;48.148;-1.786;2023-12-14T07:07:44;7.20;;;3.40;;
16975;SDS011;8604;48.148;-1.786;2023-12-14T07:10:15;7.20;;;3.50;;
16975;SDS011;8604;48.148;-1.786;2023-12-14T07:12:54;6.43;;;3.10;;
16975;SDS011;8604;48.148;-1.786;2023-12-14T07:15:30;7.63;;;3.33;;
16975;SDS011;8604;48.148;-1.786;2023-12-14T07:18:01;8.10;;;3.00;;
16975;SDS011;8604;48.148;-1.786;2023-12-14T07:20:33;6.53;;;3.00;;
16975;SDS011;8604;48.148;-1.786;2023-12-14T07:23:02;7.87;;;2.70;;
16975;SDS011;8604;48.148;-1.786;2023-12-14T07:25:34;7.73;;;3.10;;
16975;SDS011;8604;48.148;-1.786;2023-12-14T07:28:04;5.73;;;2.90;;
16975;SDS011;8604;48.148;-1.786;2023-12-14T07:30:34;5.13;;;2.70;;
16975;SDS011;8604;48.148;-1.786;2023-12-14T07:33:04;8.10;;;2.83;;
16975;SDS011;8604;48.148;-1.786;2023-12-14T07:35:34;7.20;;;2.80;;
16975;SDS011;8604;48.148;-1.786;2023-12-14T07:38:06;8.47;;;2.90;;
16975;SDS011;8604;48.148;-1.786;2023-12-14T07:40:42;6.27;;;2.60;;
16975;SDS011;8604;48.148;-1.786;2023-12-14T07:43:27;6.83;;;2.80;;
16975;SDS011;8604;48.148;-1.786;2023-12-14T07:46:01;6.37;;;2.50;;
16975;SDS011;8604;48.148;-1.786;2023-12-14T07:48:34;7.07;;;2.93;;
16975;SDS011;8604;48.148;-1.786;2023-12-14T07:51:02;5.00;;;2.50;;
16975;SDS011;8604;48.148;-1.786;2023-12-14T07:53:31;6.00;;;2.37;;
16975;SDS011;8604;48.148;-1.786;2023-12-14T07:56:00;6.53;;;2.87;;
16975;SDS011;8604;48.148;-1.786;2023-12-14T07:58:30;5.97;;;2.60;;
16975;SDS011;8604;48.148;-1.786;2023-12-14T08:00:59;4.57;;;2.43;;
16975;SDS011;8604;48.148;-1.786;2023-12-14T08:03:28;7.20;;;2.67;;
16975;SDS011;8604;48.148;-1.786;2023-12-14T08:05:56;4.73;;;2.40;;
16975;SDS011;8604;48.148;-1.786;2023-12-14T08:08:25;4.73;;;2.63;;
16975;SDS011;8604;48.148;-1.786;2023-12-14T08:10:53;4.93;;;2.60;;
16975;SDS011;8604;48.148;-1.786;2023-12-14T08:13:22;7.03;;;2.97;;
16975;SDS011;8604;48.148;-1.786;2023-12-14T08:15:52;6.33;;;2.60;;
16975;SDS011;8604;48.148;-1.786;2023-12-14T08:18:20;5.60;;;2.67;;
16975;SDS011;8604;48.148;-1.786;2023-12-14T08:20:49;6.23;;;2.73;;
16975;SDS011;8604;48.148;-1.786;2023-12-14T08:23:21;6.97;;;2.83;;
16975;SDS011;8604;48.148;-1.786;2023-12-14T08:25:52;6.83;;;3.03;;
16975;SDS011;8604;48.148;-1.786;2023-12-14T08:28:23;5.97;;;2.90;;
16975;SDS011;8604;48.148;-1.786;2023-12-14T08:30:53;6.80;;;2.97;;
16975;SDS011;8604;48.148;-1.786;2023-12-14T08:33:26;5.10;;;2.80;;
16975;SDS011;8604;48.148;-1.786;2023-12-14T08:35:55;6.23;;;2.97;;
16975;SDS011;8604;48.148;-1.786;2023-12-14T08:38:23;6.80;;;3.17;;
16975;SDS011;8604;48.148;-1.786;2023-12-14T08:40:52;6.03;;;2.70;;
16975;SDS011;8604;48.148;-1.786;2023-12-14T08:43:20;5.87;;;2.97;;
16975;SDS011;8604;48.148;-1.786;2023-12-14T08:45:49;5.50;;;2.90;;
16975;SDS011;8604;48.148;-1.786;2023-12-14T08:48:18;5.90;;;2.70;;
16975;SDS011;8604;48.148;-1.786;2023-12-14T08:50:47;6.57;;;3.00;;
16975;SDS011;8604;48.148;-1.786;2023-12-14T08:53:15;6.73;;;3.43;;
16975;SDS011;8604;48.148;-1.786;2023-12-14T08:55:44;6.17;;;3.03;;
16975;SDS011;8604;48.148;-1.786;2023-12-14T08:58:13;7.03;;;2.90;;
16975;SDS011;8604;48.148;-1.786;2023-12-14T09:00:41;7.43;;;3.10;;
16975;SDS011;8604;48.148;-1.786;2023-12-14T09:03:10;6.63;;;2.87;;
16975;SDS011;8604;48.148;-1.786;2023-12-14T09:05:40;7.07;;;3.00;;
16975;SDS011;8604;48.148;-1.786;2023-12-14T09:08:09;6.43;;;3.10;;
16975;SDS011;8604;48.148;-1.786;2023-12-14T09:10:38;6.97;;;3.07;;
16975;SDS011;8604;48.148;-1.786;2023-12-14T09:13:06;8.80;;;3.20;;
16975;SDS011;8604;48.148;-1.786;2023-12-14T09:15:35;7.37;;;3.03;;
16975;SDS011;8604;48.148;-1.786;2023-12-14T09:18:04;5.90;;;3.00;;
16975;SDS011;8604;48.148;-1.786;2023-12-14T09:20:33;5.47;;;2.80;;
16975;SDS011;8604;48.148;-1.786;2023-12-14T09:23:05;7.63;;;2.83;;
16975;SDS011;8604;48.148;-1.786;2023-12-14T09:25:36;7.57;;;3.10;;
16975;SDS011;8604;48.148;-1.786;2023-12-14T09:28:04;6.87;;;3.00;;
16975;SDS011;8604;48.148;-1.786;2023-12-14T09:30:33;5.47;;;2.67;;
16975;SDS011;8604;48.148;-1.786;2023-12-14T09:33:01;5.83;;;2.93;;
16975;SDS011;8604;48.148;-1.786;2023-12-14T09:35:30;6.23;;;2.93;;
16975;SDS011;8604;48.148;-1.786;2023-12-14T09:38:02;5.90;;;3.10;;
16975;SDS011;8604;48.148;-1.786;2023-12-14T09:40:32;9.07;;;3.70;;
16975;SDS011;8604;48.148;-1.786;2023-12-14T09:43:03;8.20;;;3.70;;
16975;SDS011;8604;48.148;-1.786;2023-12-14T09:45:38;8.43;;;3.93;;
16975;SDS011;8604;48.148;-1.786;2023-12-14T09:48:11;8.07;;;3.70;;
16975;SDS011;8604;48.148;-1.786;2023-12-14T09:50:40;8.90;;;3.97;;
16975;SDS011;8604;48.148;-1.786;2023-12-14T09:53:16;10.60;;;4.27;;
16975;SDS011;8604;48.148;-1.786;2023-12-14T09:55:47;8.23;;;3.70;;
16975;SDS011;8604;48.148;-1.786;2023-12-14T09:58:16;8.77;;;3.70;;
16975;SDS011;8604;48.148;-1.786;2023-12-14T10:00:45;7.87;;;4.33;;
16975;SDS011;8604;48.148;-1.786;2023-12-14T10:03:23;10.67;;;5.33;;
16975;SDS011;8604;48.148;-1.786;2023-12-14T10:05:55;8.80;;;5.10;;
16975;SDS011;8604;48.148;-1.786;2023-12-14T10:08:25;7.90;;;4.70;;
16975;SDS011;8604;48.148;-1.786;2023-12-14T10:10:55;9.80;;;5.23;;
16975;SDS011;8604;48.148;-1.786;2023-12-14T10:13:35;7.83;;;4.17;;
16975;SDS011;8604;48.148;-1.786;2023-12-14T10:16:09;8.10;;;3.60;;
16975;SDS011;8604;48.148;-1.786;2023-12-14T10:18:43;10.80;;;3.93;;
16975;SDS011;8604;48.148;-1.786;2023-12-14T10:21:14;9.50;;;4.30;;
16975;SDS011;8604;48.148;-1.786;2023-12-14T10:23:47;15.90;;;5.03;;
16975;SDS011;8604;48.148;-1.786;2023-12-14T10:26:17;15.60;;;4.50;;
16975;SDS011;8604;48.148;-1.786;2023-12-14T10:28:46;14.90;;;5.33;;
16975;SDS011;8604;48.148;-1.786;2023-12-14T10:31:14;15.10;;;5.43;;
16975;SDS011;8604;48.148;-1.786;2023-12-14T10:33:43;12.00;;;5.53;;
16975;SDS011;8604;48.148;-1.786;2023-12-14T10:36:21;10.17;;;4.33;;
16975;SDS011;8604;48.148;-1.786;2023-12-14T10:38:56;10.67;;;5.00;;
16975;SDS011;8604;48.148;-1.786;2023-12-14T10:41:27;14.27;;;4.80;;
16975;SDS011;8604;48.148;-1.786;2023-12-14T10:43:57;12.37;;;3.80;;
16975;SDS011;8604;48.148;-1.786;2023-12-14T10:46:47;8.00;;;3.67;;
16975;SDS011;8604;48.148;-1.786;2023-12-14T10:49:16;7.47;;;3.37;;
16975;SDS011;8604;48.148;-1.786;2023-12-14T10:51:46;6.03;;;3.00;;
16975;SDS011;8604;48.148;-1.786;2023-12-14T10:54:15;8.70;;;3.47;;
16975;SDS011;8604;48.148;-1.786;2023-12-14T10:56:46;6.57;;;3.50;;
16975;SDS011;8604;48.148;-1.786;2023-12-14T10:59:15;7.23;;;3.67;;
16975;SDS011;8604;48.148;-1.786;2023-12-14T11:01:44;9.10;;;3.40;;
16975;SDS011;8604;48.148;-1.786;2023-12-14T11:04:20;7.47;;;3.40;;
16975;SDS011;8604;48.148;-1.786;2023-12-14T11:06:49;8.07;;;3.90;;
16975;SDS011;8604;48.148;-1.786;2023-12-14T11:09:22;9.53;;;4.07;;
16975;SDS011;8604;48.148;-1.786;2023-12-14T11:11:56;8.83;;;4.07;;
16975;SDS011;8604;48.148;-1.786;2023-12-14T11:14:45;6.77;;;3.63;;
16975;SDS011;8604;48.148;-1.786;2023-12-14T11:17:15;8.37;;;4.50;;
16975;SDS011;8604;48.148;-1.786;2023-12-14T11:19:43;7.43;;;4.10;;
16975;SDS011;8604;48.148;-1.786;2023-12-14T11:25:35;12.53;;;4.70;;
16975;SDS011;8604;48.148;-1.786;2023-12-14T11:28:12;9.17;;;4.60;;
16975;SDS011;8604;48.148;-1.786;2023-12-14T11:30:43;10.83;;;4.27;;
16975;SDS011;8604;48.148;-1.786;2023-12-14T11:33:22;10.33;;;5.47;;
16975;SDS011;8604;48.148;-1.786;2023-12-14T11:35:57;10.23;;;4.80;;
16975;SDS011;8604;48.148;-1.786;2023-12-14T11:38:25;9.43;;;4.97;;
16975;SDS011;8604;48.148;-1.786;2023-12-14T11:40:54;9.77;;;4.80;;
16975;SDS011;8604;48.148;-1.786;2023-12-14T11:46:10;10.00;;;3.97;;
16975;SDS011;8604;48.148;-1.786;2023-12-14T11:48:43;7.47;;;3.30;;
16975;SDS011;8604;48.148;-1.786;2023-12-14T11:51:32;9.23;;;3.60;;
16975;SDS011;8604;48.148;-1.786;2023-12-14T11:54:03;9.30;;;3.40;;
16975;SDS011;8604;48.148;-1.786;2023-12-14T11:56:45;8.50;;;3.33;;
16975;SDS011;8604;48.148;-1.786;2023-12-14T11:59:16;9.77;;;3.53;;
16975;SDS011;8604;48.148;-1.786;2023-12-14T12:01:54;8.00;;;3.47;;
16975;SDS011;8604;48.148;-1.786;2023-12-14T12:04:24;6.87;;;3.03;;
16975;SDS011;8604;48.148;-1.786;2023-12-14T12:07:01;11.33;;;3.83;;
16975;SDS011;8604;48.148;-1.786;2023-12-14T12:09:32;8.20;;;3.20;;
16975;SDS011;8604;48.148;-1.786;2023-12-14T12:12:08;8.83;;;3.63;;
16975;SDS011;8604;48.148;-1.786;2023-12-14T12:14:54;9.67;;;3.50;;
16975;SDS011;8604;48.148;-1.786;2023-12-14T12:17:22;10.60;;;3.80;;
16975;SDS011;8604;48.148;-1.786;2023-12-14T12:19:51;8.47;;;3.90;;
16975;SDS011;8604;48.148;-1.786;2023-12-14T12:22:19;7.43;;;3.60;;
16975;SDS011;8604;48.148;-1.786;2023-12-14T12:24:48;10.30;;;4.27;;
16975;SDS011;8604;48.148;-1.786;2023-12-14T12:27:58;7.33;;;3.47;;
16975;SDS011;8604;48.148;-1.786;2023-12-14T12:30:29;9.47;;;3.73;;
16975;SDS011;8604;48.148;-1.786;2023-12-14T12:32:59;7.50;;;3.57;;
16975;SDS011;8604;48.148;-1.786;2023-12-14T12:35:27;9.73;;;3.70;;
16975;SDS011;8604;48.148;-1.786;2023-12-14T12:37:58;9.07;;;4.00;;
16975;SDS011;8604;48.148;-1.786;2023-12-14T12:40:31;9.00;;;3.27;;
16975;SDS011;8604;48.148;-1.786;2023-12-14T12:43:00;10.70;;;3.57;;
16975;SDS011;8604;48.148;-1.786;2023-12-14T12:45:30;11.17;;;4.23;;
16975;SDS011;8604;48.148;-1.786;2023-12-14T12:47:59;12.07;;;5.47;;
16975;SDS011;8604;48.148;-1.786;2023-12-14T12:50:38;16.47;;;11.73;;
16975;SDS011;8604;48.148;-1.786;2023-12-14T12:53:11;14.90;;;10.37;;
16975;SDS011;8604;48.148;-1.786;2023-12-14T12:55:39;15.97;;;11.30;;
16975;SDS011;8604;48.148;-1.786;2023-12-14T12:58:08;12.60;;;7.27;;
16975;SDS011;8604;48.148;-1.786;2023-12-14T13:00:38;12.40;;;4.53;;
16975;SDS011;8604;48.148;-1.786;2023-12-14T13:03:09;12.30;;;6.17;;
16975;SDS011;8604;48.148;-1.786;2023-12-14T13:05:40;11.83;;;4.77;;
16975;SDS011;8604;48.148;-1.786;2023-12-14T13:08:08;8.90;;;4.87;;
16975;SDS011;8604;48.148;-1.786;2023-12-14T13:10:37;10.43;;;3.93;;
16975;SDS011;8604;48.148;-1.786;2023-12-14T13:13:06;30.53;;;22.23;;
16975;SDS011;8604;48.148;-1.786;2023-12-14T13:15:36;21.47;;;14.87;;
16975;SDS011;8604;48.148;-1.786;2023-12-14T13:18:07;12.60;;;8.00;;
16975;SDS011;8604;48.148;-1.786;2023-12-14T13:20:36;10.93;;;5.70;;
16975;SDS011;8604;48.148;-1.786;2023-12-14T13:23:04;10.47;;;4.53;;
16975;SDS011;8604;48.148;-1.786;2023-12-14T13:25:32;8.23;;;4.10;;
16975;SDS011;8604;48.148;-1.786;2023-12-14T13:28:01;9.77;;;4.47;;
16975;SDS011;8604;48.148;-1.786;2023-12-14T13:30:30;9.57;;;4.83;;
16975;SDS011;8604;48.148;-1.786;2023-12-14T13:33:00;11.07;;;4.67;;
16975;SDS011;8604;48.148;-1.786;2023-12-14T13:35:30;12.13;;;5.57;;
16975;SDS011;8604;48.148;-1.786;2023-12-14T13:37:59;11.47;;;6.60;;
16975;SDS011;8604;48.148;-1.786;2023-12-14T13:40:27;7.93;;;4.50;;
16975;SDS011;8604;48.148;-1.786;2023-12-14T13:42:55;10.60;;;4.87;;
16975;SDS011;8604;48.148;-1.786;2023-12-14T13:45:33;11.30;;;5.17;;
16975;SDS011;8604;48.148;-1.786;2023-12-14T13:48:03;10.00;;;4.93;;
16975;SDS011;8604;48.148;-1.786;2023-12-14T13:50:32;11.50;;;5.03;;
16975;SDS011;8604;48.148;-1.786;2023-12-14T13:55:58;13.20;;;5.60;;
16975;SDS011;8604;48.148;-1.786;2023-12-14T13:58:27;12.80;;;5.50;;
16975;SDS011;8604;48.148;-1.786;2023-12-14T14:00:57;11.93;;;5.60;;
16975;SDS011;8604;48.148;-1.786;2023-12-14T14:03:27;11.87;;;5.83;;
16975;SDS011;8604;48.148;-1.786;2023-12-14T14:05:55;11.60;;;5.77;;
16975;SDS011;8604;48.148;-1.786;2023-12-14T14:08:24;12.10;;;5.50;;
16975;SDS011;8604;48.148;-1.786;2023-12-14T14:10:53;12.37;;;5.30;;
16975;SDS011;8604;48.148;-1.786;2023-12-14T14:13:21;10.17;;;5.03;;
16975;SDS011;8604;48.148;-1.786;2023-12-14T14:15:49;12.47;;;5.30;;
16975;SDS011;8604;48.148;-1.786;2023-12-14T14:18:18;10.27;;;5.30;;
16975;SDS011;8604;48.148;-1.786;2023-12-14T14:20:48;10.67;;;5.03;;
16975;SDS011;8604;48.148;-1.786;2023-12-14T14:23:16;10.97;;;5.70;;
16975;SDS011;8604;48.148;-1.786;2023-12-14T14:25:45;13.73;;;5.37;;
16975;SDS011;8604;48.148;-1.786;2023-12-14T14:28:13;9.83;;;4.70;;
16975;SDS011;8604;48.148;-1.786;2023-12-14T14:30:42;10.10;;;4.87;;
16975;SDS011;8604;48.148;-1.786;2023-12-14T14:33:10;12.33;;;4.70;;
16975;SDS011;8604;48.148;-1.786;2023-12-14T14:35:40;9.60;;;4.63;;
16975;SDS011;8604;48.148;-1.786;2023-12-14T14:38:10;7.77;;;5.03;;
16975;SDS011;8604;48.148;-1.786;2023-12-14T14:40:38;12.80;;;5.73;;
16975;SDS011;8604;48.148;-1.786;2023-12-14T14:43:08;10.70;;;4.80;;
16975;SDS011;8604;48.148;-1.786;2023-12-14T14:45:37;12.10;;;6.30;;
16975;SDS011;8604;48.148;-1.786;2023-12-14T14:48:06;10.70;;;5.00;;
16975;SDS011;8604;48.148;-1.786;2023-12-14T14:50:35;13.73;;;5.63;;
16975;SDS011;8604;48.148;-1.786;2023-12-14T14:53:04;8.77;;;4.63;;
16975;SDS011;8604;48.148;-1.786;2023-12-14T14:55:34;10.40;;;5.63;;
16975;SDS011;8604;48.148;-1.786;2023-12-14T14:58:02;12.10;;;6.33;;
16975;SDS011;8604;48.148;-1.786;2023-12-14T15:00:30;8.57;;;5.13;;
16975;SDS011;8604;48.148;-1.786;2023-12-14T15:03:05;14.77;;;6.50;;
16975;SDS011;8604;48.148;-1.786;2023-12-14T15:05:36;14.37;;;8.10;;
16975;SDS011;8604;48.148;-1.786;2023-12-14T15:08:05;12.70;;;7.50;;
16975;SDS011;8604;48.148;-1.786;2023-12-14T15:10:34;12.87;;;7.60;;
16975;SDS011;8604;48.148;-1.786;2023-12-14T15:13:03;11.27;;;7.20;;